sensor_id;sensor_type;location;lat;lon;timestamp;P1;durP1;ratioP1;P2;durP2;ratioP2
12776;SDS011;6452;41.572;23.732;2023-06-04T00:00:17;3.13;;;2.85;;
12776;SDS011;6452;41.572;23.732;2023-06-04T00:02:43;2.30;;;2.20;;
12776;SDS011;6452;41.572;23.732;2023-06-04T00:05:09;2.90;;;2.70;;
12776;SDS011;6452;41.572;23.732;2023-06-04T00:07:36;3.13;;;2.90;;
12776;SDS011;6452;41.572;23.732;2023-06-04T00:10:03;2.58;;;2.42;;
12776;SDS011;6452;41.572;23.732;2023-06-04T00:12:28;3.15;;;2.95;;
12776;SDS011;6452;41.572;23.732;2023-06-04T00:14:55;2.53;;;2.33;;
12776;SDS011;6452;41.572;23.732;2023-06-04T00:17:21;2.80;;;2.63;;
12776;SDS011;6452;41.572;23.732;2023-06-04T00:19:47;4.10;;;2.63;;
12776;SDS011;6452;41.572;23.732;2023-06-04T00:22:13;2.88;;;2.67;;
12776;SDS011;6452;41.572;23.732;2023-06-04T00:24:39;2.65;;;2.47;;
12776;SDS011;6452;41.572;23.732;2023-06-04T00:27:09;3.72;;;2.90;;
12776;SDS011;6452;41.572;23.732;2023-06-04T00:29:35;2.70;;;2.60;;
12776;SDS011;6452;41.572;23.732;2023-06-04T00:32:01;2.55;;;2.45;;
12776;SDS011;6452;41.572;23.732;2023-06-04T00:34:27;2.50;;;2.40;;
12776;SDS011;6452;41.572;23.732;2023-06-04T00:36:53;3.22;;;2.92;;
12776;SDS011;6452;41.572;23.732;2023-06-04T00:39:19;2.90;;;2.70;;
12776;SDS011;6452;41.572;23.732;2023-06-04T00:41:45;2.63;;;2.47;;
12776;SDS011;6452;41.572;23.732;2023-06-04T00:44:11;2.40;;;2.30;;
12776;SDS011;6452;41.572;23.732;2023-06-04T00:46:38;2.90;;;2.70;;
12776;SDS011;6452;41.572;23.732;2023-06-04T00:49:04;3.35;;;2.45;;
12776;SDS011;6452;41.572;23.732;2023-06-04T00:51:31;2.90;;;2.70;;
12776;SDS011;6452;41.572;23.732;2023-06-04T00:53:57;2.30;;;2.20;;
12776;SDS011;6452;41.572;23.732;2023-06-04T00:56:23;3.10;;;2.78;;
12776;SDS011;6452;41.572;23.732;2023-06-04T00:58:49;2.78;;;2.45;;
12776;SDS011;6452;41.572;23.732;2023-06-04T01:01:20;3.10;;;2.80;;
12776;SDS011;6452;41.572;23.732;2023-06-04T01:03:49;3.15;;;2.95;;
12776;SDS011;6452;41.572;23.732;2023-06-04T01:08:48;3.28;;;2.47;;
12776;SDS011;6452;41.572;23.732;2023-06-04T01:11:14;2.95;;;2.55;;
12776;SDS011;6452;41.572;23.732;2023-06-04T01:13:41;2.50;;;2.40;;
12776;SDS011;6452;41.572;23.732;2023-06-04T01:16:07;3.70;;;2.50;;
12776;SDS011;6452;41.572;23.732;2023-06-04T01:18:34;2.53;;;2.42;;
12776;SDS011;6452;41.572;23.732;2023-06-04T01:21:02;2.47;;;2.38;;
12776;SDS011;6452;41.572;23.732;2023-06-04T01:26:14;2.28;;;2.17;;
12776;SDS011;6452;41.572;23.732;2023-06-04T01:28:40;4.53;;;2.58;;
12776;SDS011;6452;41.572;23.732;2023-06-04T01:31:07;2.83;;;2.42;;
12776;SDS011;6452;41.572;23.732;2023-06-04T01:33:34;3.00;;;2.90;;
12776;SDS011;6452;41.572;23.732;2023-06-04T01:35:59;3.10;;;2.90;;
12776;SDS011;6452;41.572;23.732;2023-06-04T01:38:27;3.53;;;3.33;;
12776;SDS011;6452;41.572;23.732;2023-06-04T01:40:52;3.42;;;3.13;;
12776;SDS011;6452;41.572;23.732;2023-06-04T01:43:27;3.03;;;2.83;;
12776;SDS011;6452;41.572;23.732;2023-06-04T01:45:52;3.42;;;3.13;;
12776;SDS011;6452;41.572;23.732;2023-06-04T01:48:20;4.07;;;3.78;;
12776;SDS011;6452;41.572;23.732;2023-06-04T01:50:46;4.28;;;3.80;;
12776;SDS011;6452;41.572;23.732;2023-06-04T01:53:12;3.80;;;3.40;;
12776;SDS011;6452;41.572;23.732;2023-06-04T01:55:38;4.72;;;4.32;;
12776;SDS011;6452;41.572;23.732;2023-06-04T01:58:04;4.60;;;4.20;;
12776;SDS011;6452;41.572;23.732;2023-06-04T02:00:30;3.78;;;3.30;;
12776;SDS011;6452;41.572;23.732;2023-06-04T02:02:56;4.38;;;3.97;;
12776;SDS011;6452;41.572;23.732;2023-06-04T02:05:23;3.90;;;3.70;;
12776;SDS011;6452;41.572;23.732;2023-06-04T02:07:49;4.57;;;4.00;;
12776;SDS011;6452;41.572;23.732;2023-06-04T02:10:18;4.38;;;3.97;;
12776;SDS011;6452;41.572;23.732;2023-06-04T02:12:56;4.45;;;4.05;;
12776;SDS011;6452;41.572;23.732;2023-06-04T02:15:23;2.75;;;2.58;;
12776;SDS011;6452;41.572;23.732;2023-06-04T02:17:50;3.30;;;3.10;;
12776;SDS011;6452;41.572;23.732;2023-06-04T02:20:16;3.55;;;3.25;;
12776;SDS011;6452;41.572;23.732;2023-06-04T02:22:42;3.90;;;3.53;;
12776;SDS011;6452;41.572;23.732;2023-06-04T02:25:08;3.40;;;3.10;;
12776;SDS011;6452;41.572;23.732;2023-06-04T02:27:34;3.17;;;2.97;;
12776;SDS011;6452;41.572;23.732;2023-06-04T02:30:01;3.88;;;3.58;;
12776;SDS011;6452;41.572;23.732;2023-06-04T02:32:27;3.88;;;3.55;;
12776;SDS011;6452;41.572;23.732;2023-06-04T02:34:54;4.47;;;3.95;;
12776;SDS011;6452;41.572;23.732;2023-06-04T02:37:21;3.83;;;3.42;;
12776;SDS011;6452;41.572;23.732;2023-06-04T02:39:47;3.50;;;3.20;;
12776;SDS011;6452;41.572;23.732;2023-06-04T02:42:14;3.85;;;3.55;;
12776;SDS011;6452;41.572;23.732;2023-06-04T02:44:40;4.65;;;4.13;;
12776;SDS011;6452;41.572;23.732;2023-06-04T02:47:06;5.18;;;4.68;;
12776;SDS011;6452;41.572;23.732;2023-06-04T02:49:32;5.10;;;4.60;;
12776;SDS011;6452;41.572;23.732;2023-06-04T02:51:58;5.65;;;4.60;;
12776;SDS011;6452;41.572;23.732;2023-06-04T02:54:24;5.53;;;4.90;;
12776;SDS011;6452;41.572;23.732;2023-06-04T02:56:49;5.22;;;4.72;;
12776;SDS011;6452;41.572;23.732;2023-06-04T02:59:16;6.65;;;5.38;;
12776;SDS011;6452;41.572;23.732;2023-06-04T03:01:43;6.72;;;4.88;;
12776;SDS011;6452;41.572;23.732;2023-06-04T03:04:09;5.40;;;4.63;;
12776;SDS011;6452;41.572;23.732;2023-06-04T03:06:35;8.15;;;5.32;;
12776;SDS011;6452;41.572;23.732;2023-06-04T03:09:03;5.30;;;4.80;;
12776;SDS011;6452;41.572;23.732;2023-06-04T03:11:29;4.65;;;4.25;;
12776;SDS011;6452;41.572;23.732;2023-06-04T03:13:55;4.43;;;4.03;;
12776;SDS011;6452;41.572;23.732;2023-06-04T03:16:21;4.10;;;3.78;;
12776;SDS011;6452;41.572;23.732;2023-06-04T03:18:47;4.05;;;3.55;;
12776;SDS011;6452;41.572;23.732;2023-06-04T03:21:13;4.22;;;3.92;;
12776;SDS011;6452;41.572;23.732;2023-06-04T03:23:39;4.20;;;3.80;;
12776;SDS011;6452;41.572;23.732;2023-06-04T03:26:05;4.72;;;4.32;;
12776;SDS011;6452;41.572;23.732;2023-06-04T03:28:31;3.33;;;3.13;;
12776;SDS011;6452;41.572;23.732;2023-06-04T03:30:57;3.80;;;3.50;;
12776;SDS011;6452;41.572;23.732;2023-06-04T03:33:23;4.05;;;3.70;;
12776;SDS011;6452;41.572;23.732;2023-06-04T03:35:52;3.67;;;3.47;;
12776;SDS011;6452;41.572;23.732;2023-06-04T03:38:34;4.80;;;4.35;;
12776;SDS011;6452;41.572;23.732;2023-06-04T03:41:00;4.45;;;4.03;;
12776;SDS011;6452;41.572;23.732;2023-06-04T03:43:26;4.22;;;3.83;;
12776;SDS011;6452;41.572;23.732;2023-06-04T03:45:52;4.85;;;3.80;;
12776;SDS011;6452;41.572;23.732;2023-06-04T03:48:18;5.53;;;4.20;;
12776;SDS011;6452;41.572;23.732;2023-06-04T03:50:44;3.60;;;3.30;;
12776;SDS011;6452;41.572;23.732;2023-06-04T03:53:11;3.40;;;3.20;;
12776;SDS011;6452;41.572;23.732;2023-06-04T03:55:37;3.92;;;3.63;;
12776;SDS011;6452;41.572;23.732;2023-06-04T03:58:03;6.03;;;3.88;;
12776;SDS011;6452;41.572;23.732;2023-06-04T04:00:29;4.13;;;3.72;;
12776;SDS011;6452;41.572;23.732;2023-06-04T04:02:56;4.05;;;3.75;;
12776;SDS011;6452;41.572;23.732;2023-06-04T04:05:22;4.38;;;3.65;;
12776;SDS011;6452;41.572;23.732;2023-06-04T04:07:48;3.55;;;3.35;;
12776;SDS011;6452;41.572;23.732;2023-06-04T04:10:14;2.90;;;2.80;;
12776;SDS011;6452;41.572;23.732;2023-06-04T04:12:41;2.97;;;2.78;;
12776;SDS011;6452;41.572;23.732;2023-06-04T04:15:07;3.15;;;2.95;;
12776;SDS011;6452;41.572;23.732;2023-06-04T04:17:34;2.50;;;2.40;;
12776;SDS011;6452;41.572;23.732;2023-06-04T04:20:00;2.58;;;2.47;;
12776;SDS011;6452;41.572;23.732;2023-06-04T04:22:28;2.30;;;2.20;;
12776;SDS011;6452;41.572;23.732;2023-06-04T04:24:54;2.42;;;2.33;;
12776;SDS011;6452;41.572;23.732;2023-06-04T04:27:20;2.50;;;2.40;;
12776;SDS011;6452;41.572;23.732;2023-06-04T04:29:48;2.55;;;2.45;;
12776;SDS011;6452;41.572;23.732;2023-06-04T04:32:14;2.83;;;2.63;;
12776;SDS011;6452;41.572;23.732;2023-06-04T04:34:51;2.55;;;2.35;;
12776;SDS011;6452;41.572;23.732;2023-06-04T04:37:17;3.05;;;2.80;;
12776;SDS011;6452;41.572;23.732;2023-06-04T04:39:46;2.75;;;2.60;;
12776;SDS011;6452;41.572;23.732;2023-06-04T04:42:12;3.22;;;2.92;;
12776;SDS011;6452;41.572;23.732;2023-06-04T04:44:38;2.75;;;2.65;;
12776;SDS011;6452;41.572;23.732;2023-06-04T04:47:05;3.15;;;2.95;;
12776;SDS011;6452;41.572;23.732;2023-06-04T04:49:35;6.00;;;3.30;;
12776;SDS011;6452;41.572;23.732;2023-06-04T04:52:01;3.22;;;2.92;;
12776;SDS011;6452;41.572;23.732;2023-06-04T04:54:27;2.85;;;2.65;;
12776;SDS011;6452;41.572;23.732;2023-06-04T04:56:53;4.07;;;3.42;;
12776;SDS011;6452;41.572;23.732;2023-06-04T04:59:19;3.05;;;2.85;;
12776;SDS011;6452;41.572;23.732;2023-06-04T05:01:45;3.83;;;3.53;;
12776;SDS011;6452;41.572;23.732;2023-06-04T05:04:11;3.17;;;2.97;;
12776;SDS011;6452;41.572;23.732;2023-06-04T05:06:37;3.08;;;2.88;;
12776;SDS011;6452;41.572;23.732;2023-06-04T05:09:03;3.38;;;3.10;;
12776;SDS011;6452;41.572;23.732;2023-06-04T05:11:29;3.47;;;3.17;;
12776;SDS011;6452;41.572;23.732;2023-06-04T05:13:55;3.42;;;3.13;;
12776;SDS011;6452;41.572;23.732;2023-06-04T05:16:21;3.67;;;3.47;;
12776;SDS011;6452;41.572;23.732;2023-06-04T05:18:48;3.00;;;2.80;;
12776;SDS011;6452;41.572;23.732;2023-06-04T05:21:17;3.65;;;3.45;;
12776;SDS011;6452;41.572;23.732;2023-06-04T05:23:43;3.80;;;3.50;;
12776;SDS011;6452;41.572;23.732;2023-06-04T05:26:13;3.90;;;3.58;;
12776;SDS011;6452;41.572;23.732;2023-06-04T05:28:39;4.03;;;3.75;;
12776;SDS011;6452;41.572;23.732;2023-06-04T05:31:09;4.13;;;3.83;;
12776;SDS011;6452;41.572;23.732;2023-06-04T05:33:35;4.47;;;4.07;;
12776;SDS011;6452;41.572;23.732;2023-06-04T05:36:01;4.45;;;4.03;;
12776;SDS011;6452;41.572;23.732;2023-06-04T05:38:27;3.85;;;3.55;;
12776;SDS011;6452;41.572;23.732;2023-06-04T05:40:53;4.25;;;3.85;;
12776;SDS011;6452;41.572;23.732;2023-06-04T05:43:20;3.88;;;3.67;;
12776;SDS011;6452;41.572;23.732;2023-06-04T05:45:46;4.95;;;3.85;;
12776;SDS011;6452;41.572;23.732;2023-06-04T05:48:13;4.18;;;3.78;;
12776;SDS011;6452;41.572;23.732;2023-06-04T05:50:39;4.55;;;3.40;;
12776;SDS011;6452;41.572;23.732;2023-06-04T05:53:05;4.18;;;3.88;;
12776;SDS011;6452;41.572;23.732;2023-06-04T05:55:31;5.00;;;3.90;;
12776;SDS011;6452;41.572;23.732;2023-06-04T05:57:57;4.68;;;4.28;;
12776;SDS011;6452;41.572;23.732;2023-06-04T06:00:23;3.42;;;3.22;;
12776;SDS011;6452;41.572;23.732;2023-06-04T06:02:50;3.85;;;3.65;;
12776;SDS011;6452;41.572;23.732;2023-06-04T06:05:17;3.58;;;3.38;;
12776;SDS011;6452;41.572;23.732;2023-06-04T06:07:44;3.60;;;3.30;;
12776;SDS011;6452;41.572;23.732;2023-06-04T06:10:09;4.20;;;3.90;;
12776;SDS011;6452;41.572;23.732;2023-06-04T06:12:35;4.28;;;3.78;;
12776;SDS011;6452;41.572;23.732;2023-06-04T06:15:01;3.90;;;3.60;;
12776;SDS011;6452;41.572;23.732;2023-06-04T06:17:28;4.75;;;4.07;;
12776;SDS011;6452;41.572;23.732;2023-06-04T06:19:54;3.83;;;3.60;;
12776;SDS011;6452;41.572;23.732;2023-06-04T06:22:20;3.80;;;3.50;;
12776;SDS011;6452;41.572;23.732;2023-06-04T06:24:46;4.20;;;3.88;;
12776;SDS011;6452;41.572;23.732;2023-06-04T06:27:14;4.00;;;3.70;;
12776;SDS011;6452;41.572;23.732;2023-06-04T06:29:41;3.83;;;3.53;;
12776;SDS011;6452;41.572;23.732;2023-06-04T06:32:07;4.40;;;4.00;;
12776;SDS011;6452;41.572;23.732;2023-06-04T06:34:33;3.78;;;3.58;;
12776;SDS011;6452;41.572;23.732;2023-06-04T06:36:59;4.20;;;3.83;;
12776;SDS011;6452;41.572;23.732;2023-06-04T06:39:25;3.90;;;3.60;;
12776;SDS011;6452;41.572;23.732;2023-06-04T06:41:51;4.20;;;3.95;;
12776;SDS011;6452;41.572;23.732;2023-06-04T06:44:17;3.95;;;3.65;;
12776;SDS011;6452;41.572;23.732;2023-06-04T06:46:43;3.88;;;3.58;;
12776;SDS011;6452;41.572;23.732;2023-06-04T06:49:09;4.05;;;3.75;;
12776;SDS011;6452;41.572;23.732;2023-06-04T06:51:34;3.72;;;3.50;;
12776;SDS011;6452;41.572;23.732;2023-06-04T06:54:00;4.20;;;3.90;;
12776;SDS011;6452;41.572;23.732;2023-06-04T06:56:26;5.38;;;3.70;;
12776;SDS011;6452;41.572;23.732;2023-06-04T06:58:52;3.78;;;3.58;;
12776;SDS011;6452;41.572;23.732;2023-06-04T07:01:19;4.30;;;3.90;;
12776;SDS011;6452;41.572;23.732;2023-06-04T07:03:45;3.80;;;3.60;;
12776;SDS011;6452;41.572;23.732;2023-06-04T07:06:11;3.92;;;3.63;;
12776;SDS011;6452;41.572;23.732;2023-06-04T07:08:37;5.28;;;4.47;;
12776;SDS011;6452;41.572;23.732;2023-06-04T07:11:03;4.18;;;3.88;;
12776;SDS011;6452;41.572;23.732;2023-06-04T07:13:29;4.47;;;4.00;;
12776;SDS011;6452;41.572;23.732;2023-06-04T07:15:58;4.38;;;4.03;;
12776;SDS011;6452;41.572;23.732;2023-06-04T07:18:24;4.40;;;4.03;;
12776;SDS011;6452;41.572;23.732;2023-06-04T07:20:50;4.00;;;3.75;;
12776;SDS011;6452;41.572;23.732;2023-06-04T07:23:18;3.58;;;3.38;;
12776;SDS011;6452;41.572;23.732;2023-06-04T07:25:44;4.07;;;3.78;;
12776;SDS011;6452;41.572;23.732;2023-06-04T07:28:10;4.28;;;3.97;;
12776;SDS011;6452;41.572;23.732;2023-06-04T07:30:37;6.20;;;4.15;;
12776;SDS011;6452;41.572;23.732;2023-06-04T07:33:03;3.90;;;3.70;;
12776;SDS011;6452;41.572;23.732;2023-06-04T07:35:29;4.22;;;3.92;;
12776;SDS011;6452;41.572;23.732;2023-06-04T07:37:55;3.70;;;3.40;;
12776;SDS011;6452;41.572;23.732;2023-06-04T07:40:21;3.70;;;3.42;;
12776;SDS011;6452;41.572;23.732;2023-06-04T07:42:47;4.07;;;3.78;;
12776;SDS011;6452;41.572;23.732;2023-06-04T07:45:13;3.85;;;3.55;;
12776;SDS011;6452;41.572;23.732;2023-06-04T07:47:39;4.35;;;3.95;;
12776;SDS011;6452;41.572;23.732;2023-06-04T07:50:06;4.05;;;3.75;;
12776;SDS011;6452;41.572;23.732;2023-06-04T07:52:32;4.70;;;4.30;;
12776;SDS011;6452;41.572;23.732;2023-06-04T07:54:59;4.47;;;4.18;;
12776;SDS011;6452;41.572;23.732;2023-06-04T07:57:29;5.20;;;4.75;;
12776;SDS011;6452;41.572;23.732;2023-06-04T07:59:55;8.18;;;7.43;;
12776;SDS011;6452;41.572;23.732;2023-06-04T08:02:22;7.43;;;6.80;;
12776;SDS011;6452;41.572;23.732;2023-06-04T08:04:47;6.93;;;6.10;;
12776;SDS011;6452;41.572;23.732;2023-06-04T08:07:14;6.13;;;5.60;;
12776;SDS011;6452;41.572;23.732;2023-06-04T08:09:40;6.47;;;5.80;;
12776;SDS011;6452;41.572;23.732;2023-06-04T08:12:07;4.88;;;4.47;;
12776;SDS011;6452;41.572;23.732;2023-06-04T08:14:32;5.88;;;5.35;;
12776;SDS011;6452;41.572;23.732;2023-06-04T08:16:59;5.47;;;5.07;;
12776;SDS011;6452;41.572;23.732;2023-06-04T08:19:25;7.38;;;5.70;;
12776;SDS011;6452;41.572;23.732;2023-06-04T08:21:51;6.18;;;5.05;;
12776;SDS011;6452;41.572;23.732;2023-06-04T08:24:17;4.97;;;4.47;;
12776;SDS011;6452;41.572;23.732;2023-06-04T08:26:42;8.20;;;5.63;;
12776;SDS011;6452;41.572;23.732;2023-06-04T08:29:09;6.00;;;5.43;;
12776;SDS011;6452;41.572;23.732;2023-06-04T08:31:35;5.63;;;5.22;;
12776;SDS011;6452;41.572;23.732;2023-06-04T08:34:01;5.57;;;5.07;;
12776;SDS011;6452;41.572;23.732;2023-06-04T08:36:30;4.90;;;4.50;;
12776;SDS011;6452;41.572;23.732;2023-06-04T08:38:58;4.70;;;4.30;;
12776;SDS011;6452;41.572;23.732;2023-06-04T08:41:25;5.03;;;4.63;;
12776;SDS011;6452;41.572;23.732;2023-06-04T08:43:56;4.13;;;3.80;;
12776;SDS011;6452;41.572;23.732;2023-06-04T08:46:23;4.60;;;4.20;;
12776;SDS011;6452;41.572;23.732;2023-06-04T08:48:49;4.18;;;3.85;;
12776;SDS011;6452;41.572;23.732;2023-06-04T08:51:16;3.90;;;3.60;;
12776;SDS011;6452;41.572;23.732;2023-06-04T08:53:42;2.85;;;2.75;;
12776;SDS011;6452;41.572;23.732;2023-06-04T08:56:08;2.80;;;2.67;;
12776;SDS011;6452;41.572;23.732;2023-06-04T08:58:35;3.65;;;3.20;;
12776;SDS011;6452;41.572;23.732;2023-06-04T09:01:01;3.55;;;3.25;;
12776;SDS011;6452;41.572;23.732;2023-06-04T09:03:28;3.20;;;3.00;;
12776;SDS011;6452;41.572;23.732;2023-06-04T09:05:56;2.65;;;2.55;;
12776;SDS011;6452;41.572;23.732;2023-06-04T09:08:22;2.72;;;2.53;;
12776;SDS011;6452;41.572;23.732;2023-06-04T09:10:50;2.97;;;2.78;;
12776;SDS011;6452;41.572;23.732;2023-06-04T09:13:18;2.90;;;2.70;;
12776;SDS011;6452;41.572;23.732;2023-06-04T09:15:44;2.90;;;2.70;;
12776;SDS011;6452;41.572;23.732;2023-06-04T09:18:11;3.13;;;2.92;;
12776;SDS011;6452;41.572;23.732;2023-06-04T09:20:37;3.10;;;2.90;;
12776;SDS011;6452;41.572;23.732;2023-06-04T09:23:13;3.00;;;2.85;;
12776;SDS011;6452;41.572;23.732;2023-06-04T09:25:42;3.63;;;3.33;;
12776;SDS011;6452;41.572;23.732;2023-06-04T09:28:08;2.72;;;2.53;;
12776;SDS011;6452;41.572;23.732;2023-06-04T09:30:34;3.00;;;2.80;;
12776;SDS011;6452;41.572;23.732;2023-06-04T09:33:10;2.60;;;2.50;;
12776;SDS011;6452;41.572;23.732;2023-06-04T09:35:37;2.45;;;2.30;;
12776;SDS011;6452;41.572;23.732;2023-06-04T09:38:04;2.95;;;2.75;;
12776;SDS011;6452;41.572;23.732;2023-06-04T09:40:36;2.65;;;2.50;;
12776;SDS011;6452;41.572;23.732;2023-06-04T09:43:02;2.67;;;2.58;;
12776;SDS011;6452;41.572;23.732;2023-06-04T09:45:29;2.10;;;2.00;;
12776;SDS011;6452;41.572;23.732;2023-06-04T09:47:55;3.50;;;2.72;;
12776;SDS011;6452;41.572;23.732;2023-06-04T09:50:33;2.58;;;2.38;;
12776;SDS011;6452;41.572;23.732;2023-06-04T09:53:00;3.05;;;2.85;;
12776;SDS011;6452;41.572;23.732;2023-06-04T09:55:26;2.45;;;2.35;;
12776;SDS011;6452;41.572;23.732;2023-06-04T09:57:52;2.75;;;2.60;;
12776;SDS011;6452;41.572;23.732;2023-06-04T10:00:22;2.90;;;2.25;;
12776;SDS011;6452;41.572;23.732;2023-06-04T10:02:50;2.83;;;2.63;;
12776;SDS011;6452;41.572;23.732;2023-06-04T10:05:19;2.22;;;2.13;;
12776;SDS011;6452;41.572;23.732;2023-06-04T10:07:47;2.97;;;2.78;;
12776;SDS011;6452;41.572;23.732;2023-06-04T10:10:17;2.72;;;2.63;;
12776;SDS011;6452;41.572;23.732;2023-06-04T10:12:45;2.70;;;2.60;;
12776;SDS011;6452;41.572;23.732;2023-06-04T10:15:14;2.35;;;2.25;;
12776;SDS011;6452;41.572;23.732;2023-06-04T10:17:42;4.25;;;2.35;;
12776;SDS011;6452;41.572;23.732;2023-06-04T10:20:09;2.42;;;2.33;;
12776;SDS011;6452;41.572;23.732;2023-06-04T10:22:36;2.55;;;2.45;;
12776;SDS011;6452;41.572;23.732;2023-06-04T10:25:02;2.90;;;2.75;;
12776;SDS011;6452;41.572;23.732;2023-06-04T10:27:31;3.22;;;3.03;;
12776;SDS011;6452;41.572;23.732;2023-06-04T10:29:57;3.50;;;3.30;;
12776;SDS011;6452;41.572;23.732;2023-06-04T10:32:27;2.88;;;2.67;;
12776;SDS011;6452;41.572;23.732;2023-06-04T10:34:57;3.10;;;2.90;;
12776;SDS011;6452;41.572;23.732;2023-06-04T10:37:24;3.10;;;2.90;;
12776;SDS011;6452;41.572;23.732;2023-06-04T10:39:51;2.50;;;2.40;;
12776;SDS011;6452;41.572;23.732;2023-06-04T10:42:17;3.00;;;2.67;;
12776;SDS011;6452;41.572;23.732;2023-06-04T10:44:47;3.00;;;2.80;;
12776;SDS011;6452;41.572;23.732;2023-06-04T10:49:46;2.10;;;2.03;;
12776;SDS011;6452;41.572;23.732;2023-06-04T10:52:12;2.42;;;2.33;;
12776;SDS011;6452;41.572;23.732;2023-06-04T10:54:38;2.25;;;2.15;;
12776;SDS011;6452;41.572;23.732;2023-06-04T10:57:12;2.50;;;2.30;;
12776;SDS011;6452;41.572;23.732;2023-06-04T10:59:41;2.72;;;2.53;;
12776;SDS011;6452;41.572;23.732;2023-06-04T11:02:07;2.22;;;2.20;;
12776;SDS011;6452;41.572;23.732;2023-06-04T11:04:33;2.65;;;2.45;;
12776;SDS011;6452;41.572;23.732;2023-06-04T11:07:06;2.10;;;2.00;;
12776;SDS011;6452;41.572;23.732;2023-06-04T11:09:37;2.50;;;2.40;;
12776;SDS011;6452;41.572;23.732;2023-06-04T11:12:04;2.20;;;2.10;;
12776;SDS011;6452;41.572;23.732;2023-06-04T11:14:30;2.38;;;2.28;;
12776;SDS011;6452;41.572;23.732;2023-06-04T11:16:56;2.20;;;2.05;;
12776;SDS011;6452;41.572;23.732;2023-06-04T11:19:22;2.22;;;2.13;;
12776;SDS011;6452;41.572;23.732;2023-06-04T11:21:48;2.13;;;2.03;;
12776;SDS011;6452;41.572;23.732;2023-06-04T11:24:14;2.15;;;2.05;;
12776;SDS011;6452;41.572;23.732;2023-06-04T11:26:39;2.30;;;2.20;;
12776;SDS011;6452;41.572;23.732;2023-06-04T11:29:06;2.72;;;2.35;;
12776;SDS011;6452;41.572;23.732;2023-06-04T11:34:08;2.42;;;2.33;;
12776;SDS011;6452;41.572;23.732;2023-06-04T11:36:34;2.20;;;2.10;;
12776;SDS011;6452;41.572;23.732;2023-06-04T11:39:01;2.20;;;1.98;;
12776;SDS011;6452;41.572;23.732;2023-06-04T11:41:31;2.70;;;2.30;;
12776;SDS011;6452;41.572;23.732;2023-06-04T11:43:57;2.25;;;2.15;;
12776;SDS011;6452;41.572;23.732;2023-06-04T11:46:23;2.22;;;2.13;;
12776;SDS011;6452;41.572;23.732;2023-06-04T11:48:52;2.42;;;2.22;;
12776;SDS011;6452;41.572;23.732;2023-06-04T11:51:19;2.35;;;2.25;;
12776;SDS011;6452;41.572;23.732;2023-06-04T11:53:46;2.25;;;2.15;;
12776;SDS011;6452;41.572;23.732;2023-06-04T11:56:17;2.40;;;2.30;;
12776;SDS011;6452;41.572;23.732;2023-06-04T11:58:43;2.10;;;2.00;;
12776;SDS011;6452;41.572;23.732;2023-06-04T12:01:11;2.22;;;2.13;;
12776;SDS011;6452;41.572;23.732;2023-06-04T12:03:39;2.20;;;2.10;;
12776;SDS011;6452;41.572;23.732;2023-06-04T12:06:15;2.33;;;2.20;;
12776;SDS011;6452;41.572;23.732;2023-06-04T12:08:48;1.92;;;1.83;;
12776;SDS011;6452;41.572;23.732;2023-06-04T12:13:50;2.15;;;2.03;;
12776;SDS011;6452;41.572;23.732;2023-06-04T12:16:16;2.20;;;2.03;;
12776;SDS011;6452;41.572;23.732;2023-06-04T12:18:42;2.08;;;1.90;;
12776;SDS011;6452;41.572;23.732;2023-06-04T12:21:20;2.08;;;1.98;;
12776;SDS011;6452;41.572;23.732;2023-06-04T12:24:25;2.03;;;1.92;;
12776;SDS011;6452;41.572;23.732;2023-06-04T12:26:43;2.13;;;2.00;;
12776;SDS011;6452;41.572;23.732;2023-06-04T12:31:40;2.10;;;2.00;;
12776;SDS011;6452;41.572;23.732;2023-06-04T12:34:08;2.33;;;2.22;;
12776;SDS011;6452;41.572;23.732;2023-06-04T12:36:34;1.70;;;1.70;;
12776;SDS011;6452;41.572;23.732;2023-06-04T12:39:02;2.13;;;1.98;;
12776;SDS011;6452;41.572;23.732;2023-06-04T12:41:28;1.80;;;1.73;;
12776;SDS011;6452;41.572;23.732;2023-06-04T12:43:55;2.15;;;2.05;;
12776;SDS011;6452;41.572;23.732;2023-06-04T12:46:21;1.98;;;1.83;;
12776;SDS011;6452;41.572;23.732;2023-06-04T12:48:47;2.70;;;2.20;;
12776;SDS011;6452;41.572;23.732;2023-06-04T12:51:14;2.80;;;2.00;;
12776;SDS011;6452;41.572;23.732;2023-06-04T12:53:40;2.70;;;2.50;;
12776;SDS011;6452;41.572;23.732;2023-06-04T12:56:06;2.65;;;2.45;;
12776;SDS011;6452;41.572;23.732;2023-06-04T12:58:33;2.67;;;2.40;;
12776;SDS011;6452;41.572;23.732;2023-06-04T13:00:59;2.80;;;2.60;;
12776;SDS011;6452;41.572;23.732;2023-06-04T13:03:26;2.50;;;2.40;;
12776;SDS011;6452;41.572;23.732;2023-06-04T13:05:52;2.42;;;2.30;;
12776;SDS011;6452;41.572;23.732;2023-06-04T13:08:19;2.78;;;2.60;;
12776;SDS011;6452;41.572;23.732;2023-06-04T13:10:47;3.10;;;2.90;;
12776;SDS011;6452;41.572;23.732;2023-06-04T13:13:14;4.35;;;3.22;;
12776;SDS011;6452;41.572;23.732;2023-06-04T13:15:41;3.67;;;2.53;;
12776;SDS011;6452;41.572;23.732;2023-06-04T13:18:08;2.83;;;2.50;;
12776;SDS011;6452;41.572;23.732;2023-06-04T13:20:36;2.60;;;2.50;;
12776;SDS011;6452;41.572;23.732;2023-06-04T13:23:03;2.60;;;2.47;;
12776;SDS011;6452;41.572;23.732;2023-06-04T13:25:30;3.67;;;2.50;;
12776;SDS011;6452;41.572;23.732;2023-06-04T13:27:59;2.08;;;1.98;;
12776;SDS011;6452;41.572;23.732;2023-06-04T13:30:26;1.80;;;1.80;;
12776;SDS011;6452;41.572;23.732;2023-06-04T13:32:56;3.47;;;3.20;;
12776;SDS011;6452;41.572;23.732;2023-06-04T13:35:24;3.10;;;2.90;;
12776;SDS011;6452;41.572;23.732;2023-06-04T13:37:50;4.15;;;3.75;;
12776;SDS011;6452;41.572;23.732;2023-06-04T13:40:16;4.55;;;4.00;;
12776;SDS011;6452;41.572;23.732;2023-06-04T13:42:43;2.97;;;2.78;;
12776;SDS011;6452;41.572;23.732;2023-06-04T13:45:09;2.70;;;2.50;;
12776;SDS011;6452;41.572;23.732;2023-06-04T13:47:35;3.80;;;2.20;;
12776;SDS011;6452;41.572;23.732;2023-06-04T13:50:02;3.38;;;3.00;;
12776;SDS011;6452;41.572;23.732;2023-06-04T13:52:29;3.50;;;2.92;;
12776;SDS011;6452;41.572;23.732;2023-06-04T13:54:55;4.15;;;3.47;;
12776;SDS011;6452;41.572;23.732;2023-06-04T13:57:24;3.03;;;2.40;;
12776;SDS011;6452;41.572;23.732;2023-06-04T13:59:50;2.17;;;1.92;;
12776;SDS011;6452;41.572;23.732;2023-06-04T14:02:17;2.13;;;1.92;;
12776;SDS011;6452;41.572;23.732;2023-06-04T14:04:43;1.52;;;1.48;;
12776;SDS011;6452;41.572;23.732;2023-06-04T14:07:10;1.75;;;1.65;;
12776;SDS011;6452;41.572;23.732;2023-06-04T14:09:36;2.00;;;1.90;;
12776;SDS011;6452;41.572;23.732;2023-06-04T14:12:02;2.40;;;2.30;;
12776;SDS011;6452;41.572;23.732;2023-06-04T14:14:29;3.00;;;2.80;;
12776;SDS011;6452;41.572;23.732;2023-06-04T14:17:05;2.25;;;2.15;;
12776;SDS011;6452;41.572;23.732;2023-06-04T14:19:34;4.40;;;2.22;;
12776;SDS011;6452;41.572;23.732;2023-06-04T14:22:00;2.90;;;2.70;;
12776;SDS011;6452;41.572;23.732;2023-06-04T14:24:26;2.53;;;2.42;;
12776;SDS011;6452;41.572;23.732;2023-06-04T14:26:52;3.10;;;2.65;;
12776;SDS011;6452;41.572;23.732;2023-06-04T14:29:19;2.95;;;2.65;;
12776;SDS011;6452;41.572;23.732;2023-06-04T14:31:45;2.72;;;2.50;;
12776;SDS011;6452;41.572;23.732;2023-06-04T14:34:12;2.42;;;2.33;;
12776;SDS011;6452;41.572;23.732;2023-06-04T14:36:38;2.30;;;2.20;;
12776;SDS011;6452;41.572;23.732;2023-06-04T14:39:05;2.05;;;1.95;;
12776;SDS011;6452;41.572;23.732;2023-06-04T14:41:31;2.42;;;1.92;;
12776;SDS011;6452;41.572;23.732;2023-06-04T14:43:57;2.85;;;2.65;;
12776;SDS011;6452;41.572;23.732;2023-06-04T14:46:23;2.50;;;2.30;;
12776;SDS011;6452;41.572;23.732;2023-06-04T14:48:49;2.75;;;2.45;;
12776;SDS011;6452;41.572;23.732;2023-06-04T14:51:16;2.50;;;2.30;;
12776;SDS011;6452;41.572;23.732;2023-06-04T14:53:45;2.40;;;2.20;;
12776;SDS011;6452;41.572;23.732;2023-06-04T14:56:12;2.90;;;2.70;;
12776;SDS011;6452;41.572;23.732;2023-06-04T14:58:37;3.00;;;2.80;;
12776;SDS011;6452;41.572;23.732;2023-06-04T15:01:03;2.33;;;2.17;;